Terminal Aerodrome Forecast
Issued by NWS Dallas/Fort Worth, TX

Home | Current Version | Previous Version | Text Only | Print | Product List | Glossary On
Versions: 1 2 3 4 5 6 7 8 9 10 11 12 13 14 15 16 17 18 19 20 21 22 23 24 25 26 27 28 29 30 31 32 33 34 35
000
FTUS44 KFWD 230302 AAB
TAFDFW
TAF AMD
KDFW 230302Z 2303/2406 14010KT P6SM SCT050 OVC250
     FM230600 13010KT P6SM VCTS SCT025CB BKN100
      TEMPO 2306/2310 32015KT 3SM -TSRA BKN020 BKN025CB
     FM231000 VRB05KT P6SM BKN022 BKN080
     FM231200 35009KT P6SM BKN025
     FM231800 35016G26KT P6SM VCSH BKN040 BKN100
     FM240100 34016KT P6SM SKC=

USA.gov is the U.S. government's official web portal to all federal, state and local government web resources and services.